Time;durP1;ratioP1;P1;durP2;ratioP2;P2;SDS_P1;SDS_P2;PMS_P1;PMS_P2;Temp;Humidity;BMP_temperature;BMP_pressure;BME280_temperature;BME280_humidity;BME280_pressure;Samples;Min_cycle;Max_cycle;Signal;HPM_P1;HPM_P2
2023/06/17 00:00:29;;;;;;;6.40;5.80;;;21.80;47.90;;;;;;4935014;29;20482;-90
2023/06/17 00:02:56;;;;;;;15.03;5.87;;;21.80;48.20;;;;;;4934439;29;20443;-88
2023/06/17 00:05:24;;;;;;;7.00;6.30;;;21.80;48.10;;;;;;4914105;29;20458;-90
2023/06/17 00:07:52;;;;;;;7.23;6.20;;;21.80;47.80;;;;;;4902197;29;20463;-88
2023/06/17 00:10:19;;;;;;;6.40;5.80;;;21.80;48.10;;;;;;4925067;29;20572;-89
2023/06/17 00:12:48;;;;;;;13.10;6.80;;;21.80;48.50;;;;;;4928157;29;20462;-90
2023/06/17 00:15:16;;;;;;;7.57;6.30;;;21.80;48.80;;;;;;4910216;29;20462;-89
2023/06/17 00:17:46;;;;;;;9.10;7.33;;;21.80;49.30;;;;;;4922917;29;20456;-91
2023/06/17 00:20:14;;;;;;;9.07;6.53;;;21.80;50.10;;;;;;4948795;28;20482;-90
2023/06/17 00:22:44;;;;;;;7.80;6.83;;;21.80;50.20;;;;;;4933014;29;20458;-88
2023/06/17 00:25:12;;;;;;;7.70;6.90;;;21.70;50.50;;;;;;4939456;29;20489;-89
2023/06/17 00:27:39;;;;;;;9.03;6.50;;;21.70;50.70;;;;;;4918424;29;20445;-89
2023/06/17 00:30:08;;;;;;;8.57;6.87;;;21.70;51.40;;;;;;4923745;29;20489;-88
2023/06/17 00:32:35;;;;;;;8.73;7.50;;;21.30;50.60;;;;;;4919967;29;20831;-89
2023/06/17 00:35:04;;;;;;;9.27;6.70;;;21.30;51.10;;;;;;4924806;29;20458;-89
2023/06/17 00:37:31;;;;;;;7.80;6.37;;;21.30;50.10;;;;;;4905253;29;20458;-88
2023/06/17 00:39:59;;;;;;;6.80;6.10;;;21.40;50.30;;;;;;4907733;29;20478;-90
2023/06/17 00:42:26;;;;;;;7.67;5.80;;;21.40;50.30;;;;;;4919151;29;20954;-89
2023/06/17 00:44:53;;;;;;;6.97;6.00;;;21.40;49.90;;;;;;4923051;29;20504;-89
2023/06/17 00:47:21;;;;;;;7.77;6.13;;;21.40;49.50;;;;;;4908650;29;20451;-91
2023/06/17 00:49:48;;;;;;;6.60;5.90;;;21.40;49.30;;;;;;4939473;28;20902;-89
2023/06/17 00:52:15;;;;;;;11.33;6.73;;;21.40;49.50;;;;;;4911703;29;20798;-88
2023/06/17 00:54:43;;;;;;;8.73;6.27;;;21.20;49.90;;;;;;4922920;29;20564;-89
2023/06/17 00:57:13;;;;;;;7.70;6.47;;;20.90;50.50;;;;;;4908544;29;20447;-88
2023/06/17 00:59:42;;;;;;;12.90;7.00;;;20.80;50.80;;;;;;4941037;28;20517;-89
2023/06/17 01:02:10;;;;;;;8.77;7.30;;;20.80;50.50;;;;;;4903136;29;20450;-86
2023/06/17 01:04:38;;;;;;;10.47;6.93;;;20.90;50.50;;;;;;4916511;29;20739;-90
2023/06/17 01:07:24;;;;;;;12.27;7.50;;;20.90;50.10;;;;;;4906507;29;20453;-89
2023/06/17 01:09:57;;;;;;;7.20;6.50;;;21.00;50.30;;;;;;4917122;29;20854;-90
2023/06/17 01:12:27;;;;;;;12.03;7.60;;;21.00;50.40;;;;;;4925062;29;20505;-89
2023/06/17 01:14:57;;;;;;;8.27;6.10;;;21.00;50.80;;;;;;4910616;29;20516;-87
2023/06/17 01:17:25;;;;;;;11.00;6.73;;;20.90;50.90;;;;;;4923664;29;20453;-88
2023/06/17 01:19:56;;;;;;;8.30;6.57;;;20.90;50.70;;;;;;4922369;29;20470;-87
2023/06/17 01:22:27;;;;;;;7.83;7.03;;;20.90;50.60;;;;;;4936670;29;20459;-87
2023/06/17 01:24:56;;;;;;;7.93;7.20;;;21.00;50.80;;;;;;4909866;29;20827;-88
2023/06/17 01:27:24;;;;;;;7.57;6.77;;;20.90;50.80;;;;;;4924927;29;20480;-89
2023/06/17 01:29:52;;;;;;;8.97;7.33;;;20.90;50.80;;;;;;4918716;29;20517;-90
2023/06/17 01:32:19;;;;;;;9.53;6.50;;;20.90;50.20;;;;;;4936296;29;20455;-90
2023/06/17 01:34:53;;;;;;;7.33;6.63;;;20.80;49.90;;;;;;4911264;29;20835;-90
2023/06/17 01:37:26;;;;;;;7.60;6.77;;;20.70;49.40;;;;;;4923550;29;20492;-90
2023/06/17 01:39:58;;;;;;;7.77;6.87;;;20.70;49.70;;;;;;4909193;29;20497;-88
2023/06/17 01:42:31;;;;;;;12.83;7.83;;;20.60;49.30;;;;;;4920643;29;20462;-89
2023/06/17 01:44:59;;;;;;;9.90;7.63;;;20.50;50.40;;;;;;4919174;29;20730;-89
2023/06/17 01:47:26;;;;;;;7.87;6.93;;;20.50;50.60;;;;;;4906965;29;20961;-89
2023/06/17 01:49:58;;;;;;;9.40;7.03;;;20.50;50.50;;;;;;4916370;29;20753;-89
2023/06/17 01:52:26;;;;;;;8.10;7.30;;;20.50;50.20;;;;;;4919369;29;20446;-89
2023/06/17 01:54:53;;;;;;;9.53;7.17;;;20.50;50.20;;;;;;4908213;29;20455;-90
2023/06/17 01:57:21;;;;;;;8.07;7.27;;;20.50;50.20;;;;;;4903137;29;21035;-89
2023/06/17 01:59:48;;;;;;;9.10;7.33;;;20.40;50.40;;;;;;4917533;29;20475;-90
2023/06/17 02:02:15;;;;;;;7.63;6.83;;;20.40;50.20;;;;;;4922762;29;20466;-89
2023/06/17 02:04:42;;;;;;;10.20;7.20;;;20.40;50.60;;;;;;4906131;29;20450;-89
2023/06/17 02:07:10;;;;;;;10.60;7.10;;;20.40;50.60;;;;;;4921162;29;20462;-90
2023/06/17 02:09:38;;;;;;;8.00;7.20;;;20.40;50.80;;;;;;4922680;29;20478;-90
2023/06/17 02:12:09;;;;;;;7.40;6.70;;;20.40;50.90;;;;;;4927052;29;20775;-89
2023/06/17 02:14:37;;;;;;;7.30;6.60;;;20.30;51.10;;;;;;4913335;29;20458;-90
2023/06/17 02:17:05;;;;;;;8.00;7.20;;;20.30;51.20;;;;;;4935393;29;20459;-89
2023/06/17 02:19:32;;;;;;;10.00;7.00;;;20.30;50.50;;;;;;4902603;29;20473;-89
2023/06/17 02:21:59;;;;;;;7.63;6.77;;;20.20;50.80;;;;;;4925062;29;20475;-89
2023/06/17 02:24:27;;;;;;;8.40;7.60;;;20.10;51.10;;;;;;4922793;29;20460;-89
2023/06/17 02:26:54;;;;;;;9.47;7.63;;;20.10;51.30;;;;;;4931680;28;20461;-90
2023/06/17 02:29:21;;;;;;;10.53;7.80;;;20.10;51.00;;;;;;4936705;28;21077;-89
2023/06/17 02:31:51;;;;;;;9.23;8.33;;;20.10;51.50;;;;;;4901900;29;20496;-90
2023/06/17 02:34:19;;;;;;;8.27;7.30;;;20.10;51.60;;;;;;4906855;29;20883;-89
2023/06/17 02:36:46;;;;;;;11.00;8.13;;;20.10;51.80;;;;;;4928775;29;20568;-89
2023/06/17 02:39:13;;;;;;;11.27;8.40;;;20.00;51.30;;;;;;4922139;29;20479;-90
2023/06/17 02:41:40;;;;;;;9.07;7.60;;;19.60;51.50;;;;;;4923157;29;20490;-88
2023/06/17 02:44:07;;;;;;;9.67;7.77;;;19.30;51.90;;;;;;4908553;29;20453;-88
2023/06/17 02:46:36;;;;;;;7.63;6.80;;;19.40;51.70;;;;;;4908131;29;20828;-89
2023/06/17 02:49:04;;;;;;;9.20;7.33;;;19.40;51.00;;;;;;4908609;29;20548;-89
2023/06/17 02:51:34;;;;;;;11.90;8.30;;;19.40;50.90;;;;;;4902826;29;20454;-91
2023/06/17 02:54:01;;;;;;;8.67;7.10;;;19.40;50.90;;;;;;4927201;29;20505;-89
2023/06/17 02:56:28;;;;;;;10.10;7.30;;;19.40;50.60;;;;;;4925418;29;20478;-88
2023/06/17 02:58:55;;;;;;;7.90;7.00;;;19.40;50.60;;;;;;4909095;29;20466;-90
2023/06/17 03:01:22;;;;;;;8.93;7.13;;;19.40;51.10;;;;;;4927340;29;20980;-88
2023/06/17 03:03:54;;;;;;;11.27;7.93;;;19.40;51.00;;;;;;4926994;29;20467;-87
2023/06/17 03:06:23;;;;;;;10.97;8.47;;;19.40;51.40;;;;;;4927900;29;21048;-89
2023/06/17 03:08:52;;;;;;;12.20;7.67;;;19.50;51.50;;;;;;4920298;29;20470;-88
2023/06/17 03:11:19;;;;;;;9.87;8.10;;;19.40;51.50;;;;;;4922759;29;20561;-89
2023/06/17 03:13:46;;;;;;;7.80;6.80;;;19.40;52.10;;;;;;4929154;29;20490;-90
2023/06/17 03:16:23;;;;;;;8.50;7.50;;;19.50;52.20;;;;;;4944070;28;20447;-88
2023/06/17 03:18:49;;;;;;;11.60;7.60;;;19.50;52.20;;;;;;4927112;29;20489;-87
2023/06/17 03:21:17;;;;;;;10.37;8.00;;;19.40;52.00;;;;;;4924697;29;20457;-89
2023/06/17 03:23:48;;;;;;;8.57;6.90;;;19.40;51.70;;;;;;4901550;29;20464;-91
2023/06/17 03:26:15;;;;;;;7.80;6.90;;;19.40;51.20;;;;;;4926610;29;20450;-89
2023/06/17 03:28:42;;;;;;;9.30;7.80;;;19.40;51.40;;;;;;4920020;29;20481;-88
2023/06/17 03:31:10;;;;;;;9.23;7.60;;;19.30;51.10;;;;;;4919889;29;20477;-87
2023/06/17 03:33:37;;;;;;;9.87;8.37;;;19.30;51.60;;;;;;4902991;29;20450;-89
2023/06/17 03:36:05;;;;;;;8.50;6.80;;;19.30;51.70;;;;;;4910314;29;20463;-90
2023/06/17 03:38:32;;;;;;;11.60;7.50;;;19.30;51.40;;;;;;4909363;29;20953;-89
2023/06/17 03:41:00;;;;;;;8.07;7.23;;;19.40;51.50;;;;;;4908803;29;20455;-90
2023/06/17 03:43:27;;;;;;;9.07;7.97;;;19.40;51.70;;;;;;4904459;29;20466;-89
2023/06/17 03:45:54;;;;;;;8.60;7.70;;;19.40;51.90;;;;;;4910214;29;20461;-90
2023/06/17 03:48:21;;;;;;;10.70;7.60;;;19.40;51.90;;;;;;4919912;28;20455;-88
2023/06/17 03:50:48;;;;;;;8.90;7.90;;;19.40;52.10;;;;;;4932724;29;20560;-88
2023/06/17 03:53:15;;;;;;;8.67;7.00;;;19.40;52.10;;;;;;4911148;29;20455;-90
2023/06/17 03:55:42;;;;;;;9.53;7.00;;;19.40;52.00;;;;;;4920121;29;20446;-87
2023/06/17 03:58:14;;;;;;;9.37;7.07;;;19.40;52.60;;;;;;4901408;29;20464;-90
2023/06/17 04:00:42;;;;;;;9.40;8.27;;;19.40;52.50;;;;;;4922348;29;20841;-87
2023/06/17 04:03:10;;;;;;;10.13;7.27;;;19.40;52.70;;;;;;4932868;28;20470;-88
2023/06/17 04:05:38;;;;;;;8.47;7.60;;;19.40;52.60;;;;;;4908099;29;20454;-90
2023/06/17 04:08:07;;;;;;;9.90;7.07;;;19.40;53.00;;;;;;4910806;29;20456;-90
2023/06/17 04:10:34;;;;;;;9.07;7.67;;;19.40;52.90;;;;;;4933291;29;20515;-89
2023/06/17 04:13:01;;;;;;;8.90;7.00;;;19.40;52.70;;;;;;4924476;29;20447;-89
2023/06/17 04:15:30;;;;;;;10.30;7.80;;;19.40;53.30;;;;;;4914139;29;20514;-89
2023/06/17 04:17:57;;;;;;;9.00;7.73;;;19.40;52.80;;;;;;4909247;29;20468;-89
2023/06/17 04:20:25;;;;;;;9.57;7.57;;;19.40;52.90;;;;;;4943015;28;20506;-90
2023/06/17 04:22:52;;;;;;;10.23;8.07;;;19.40;52.70;;;;;;4919817;29;20450;-90
2023/06/17 04:25:20;;;;;;;8.67;7.20;;;19.40;52.80;;;;;;4912560;29;20460;-89
2023/06/17 04:27:53;;;;;;;10.67;7.57;;;19.40;52.70;;;;;;4906774;29;21758;-88
2023/06/17 04:30:21;;;;;;;8.10;7.30;;;19.40;52.80;;;;;;4935580;28;20509;-89
2023/06/17 04:32:50;;;;;;;10.73;7.93;;;19.40;52.70;;;;;;4921211;29;20843;-91
2023/06/17 04:35:18;;;;;;;9.53;8.00;;;19.40;52.90;;;;;;4909244;29;20455;-90
2023/06/17 04:37:53;;;;;;;9.23;7.20;;;19.50;53.10;;;;;;4900324;29;20481;-90
2023/06/17 04:40:20;;;;;;;10.50;7.93;;;19.40;53.10;;;;;;4918605;29;20550;-89
2023/06/17 04:42:48;;;;;;;9.80;7.70;;;19.50;52.90;;;;;;4908227;29;20906;-89
2023/06/17 04:45:17;;;;;;;11.20;7.90;;;19.50;52.80;;;;;;4927080;29;20453;-90
2023/06/17 04:47:45;;;;;;;8.80;7.07;;;19.50;52.90;;;;;;4919455;29;20534;-89
2023/06/17 04:50:16;;;;;;;10.20;7.93;;;19.50;52.90;;;;;;4916892;29;20494;-90
2023/06/17 04:52:47;;;;;;;8.87;7.77;;;19.60;53.20;;;;;;4901689;29;20518;-89
2023/06/17 04:55:14;;;;;;;11.10;8.30;;;19.50;53.20;;;;;;4908954;29;20457;-89
2023/06/17 04:57:42;;;;;;;9.47;8.47;;;19.50;53.40;;;;;;4934503;28;20459;-90
2023/06/17 05:00:12;;;;;;;11.27;8.33;;;19.40;53.70;;;;;;4924515;29;20542;-87
2023/06/17 05:02:41;;;;;;;10.37;7.80;;;19.40;54.10;;;;;;4900755;29;20455;-87
2023/06/17 05:05:09;;;;;;;12.30;9.20;;;19.40;53.90;;;;;;4934003;29;20470;-90
2023/06/17 05:07:37;;;;;;;9.47;8.27;;;19.50;54.10;;;;;;4903351;29;20469;-89
2023/06/17 05:10:06;;;;;;;11.33;8.70;;;19.50;54.10;;;;;;4931539;28;20479;-90
2023/06/17 05:12:35;;;;;;;11.87;8.77;;;19.50;53.90;;;;;;4917512;28;20463;-88
2023/06/17 05:15:02;;;;;;;11.40;8.63;;;19.50;54.00;;;;;;4905544;29;21003;-90
2023/06/17 05:17:29;;;;;;;10.60;7.90;;;19.20;54.80;;;;;;4923363;29;20467;-89
2023/06/17 05:19:56;;;;;;;11.63;8.60;;;19.20;55.10;;;;;;4923277;29;20469;-89
2023/06/17 05:22:24;;;;;;;15.17;8.30;;;19.30;55.10;;;;;;4942399;29;20464;-89
2023/06/17 05:24:52;;;;;;;11.37;8.53;;;19.30;55.70;;;;;;4904367;29;20960;-89
2023/06/17 05:27:19;;;;;;;12.13;8.80;;;19.20;55.90;;;;;;4911071;29;20659;-88
2023/06/17 05:29:46;;;;;;;10.10;9.00;;;19.30;56.00;;;;;;4908499;29;20501;-90
2023/06/17 05:32:14;;;;;;;13.90;9.20;;;19.30;56.20;;;;;;4924922;29;20458;-87
2023/06/17 05:34:41;;;;;;;9.80;8.80;;;19.20;56.70;;;;;;4922166;29;20479;-91
2023/06/17 05:37:08;;;;;;;10.07;8.50;;;19.40;56.70;;;;;;4905546;29;20550;-85
2023/06/17 05:39:34;;;;;;;10.30;7.97;;;19.50;56.30;;;;;;4924267;29;20878;-85
2023/06/17 05:42:04;;;;;;;12.80;8.60;;;19.70;56.20;;;;;;4905531;29;20447;-86
2023/06/17 05:44:31;;;;;;;13.27;8.57;;;19.90;55.60;;;;;;4905536;29;20497;-86
2023/06/17 05:47:00;;;;;;;9.63;8.23;;;20.00;55.00;;;;;;4938906;29;21000;-85
2023/06/17 05:49:27;;;;;;;10.07;8.97;;;20.10;54.60;;;;;;4924313;29;20530;-85
2023/06/17 05:51:54;;;;;;;13.00;7.97;;;20.30;54.00;;;;;;4904530;29;20467;-86
2023/06/17 05:54:21;;;;;;;10.00;7.50;;;20.20;54.40;;;;;;4920290;29;20485;-86
2023/06/17 05:56:50;;;;;;;11.47;8.43;;;20.50;54.20;;;;;;4908038;29;20457;-85
2023/06/17 05:59:18;;;;;;;8.63;7.07;;;20.80;53.80;;;;;;4941608;28;21062;-86
2023/06/17 06:01:45;;;;;;;16.47;8.47;;;21.00;53.20;;;;;;4930973;29;20530;-86
2023/06/17 06:04:12;;;;;;;11.63;8.00;;;21.10;53.00;;;;;;4938447;29;20450;-85
2023/06/17 06:06:39;;;;;;;11.20;8.50;;;21.30;52.60;;;;;;4940952;28;20462;-85
2023/06/17 06:09:06;;;;;;;9.27;8.30;;;21.40;52.10;;;;;;4898859;29;20474;-86
2023/06/17 06:11:34;;;;;;;10.87;7.77;;;21.50;52.00;;;;;;4900925;29;20559;-87
2023/06/17 06:14:01;;;;;;;8.73;7.43;;;21.70;52.10;;;;;;4929071;29;20459;-86
2023/06/17 06:16:29;;;;;;;10.57;7.10;;;21.80;51.70;;;;;;4911790;29;20472;-85
2023/06/17 06:18:56;;;;;;;14.23;7.83;;;21.70;51.60;;;;;;4913228;29;21110;-85
2023/06/17 06:21:23;;;;;;;7.77;6.93;;;21.60;51.50;;;;;;4942614;29;20450;-86
2023/06/17 06:23:50;;;;;;;9.03;8.10;;;21.70;51.70;;;;;;4916564;29;20465;-85
2023/06/17 06:26:18;;;;;;;12.27;7.27;;;21.90;51.60;;;;;;4913755;29;20465;-86
2023/06/17 06:28:45;;;;;;;10.20;7.70;;;22.10;51.30;;;;;;4950334;28;20976;-87
2023/06/17 06:31:12;;;;;;;9.57;6.93;;;22.00;50.90;;;;;;4913000;29;20885;-87
2023/06/17 06:33:41;;;;;;;10.10;6.90;;;22.20;51.00;;;;;;4913204;29;20446;-86
2023/06/17 06:36:09;;;;;;;7.87;6.53;;;22.20;51.10;;;;;;4922882;29;20444;-84
2023/06/17 06:38:36;;;;;;;8.10;6.77;;;22.30;51.00;;;;;;4928518;29;20481;-86
2023/06/17 06:41:03;;;;;;;8.87;7.47;;;22.50;51.10;;;;;;4926082;29;20519;-86
2023/06/17 06:43:34;;;;;;;9.47;7.17;;;22.80;50.70;;;;;;4947207;28;20514;-86
2023/06/17 06:46:03;;;;;;;10.40;7.07;;;22.80;50.40;;;;;;4922231;29;20451;-87
2023/06/17 06:48:31;;;;;;;9.23;6.57;;;22.90;50.60;;;;;;4921820;28;21249;-85
2023/06/17 06:51:01;;;;;;;8.93;7.03;;;23.10;49.80;;;;;;4936000;29;20843;-87
2023/06/17 06:53:28;;;;;;;10.47;7.40;;;23.10;49.80;;;;;;4935456;29;20554;-87
2023/06/17 06:55:55;;;;;;;11.17;7.93;;;23.30;49.60;;;;;;4922674;29;20450;-86
2023/06/17 06:58:22;;;;;;;9.00;7.30;;;23.50;49.60;;;;;;4938473;29;20534;-86
2023/06/17 07:00:50;;;;;;;13.63;8.40;;;23.50;49.20;;;;;;4911749;29;20447;-85
2023/06/17 07:03:18;;;;;;;8.00;7.00;;;23.30;49.80;;;;;;4940663;29;20454;-87
2023/06/17 07:05:45;;;;;;;12.13;8.17;;;23.40;49.20;;;;;;4934086;29;20928;-88
2023/06/17 07:08:15;;;;;;;10.73;7.20;;;23.30;49.60;;;;;;4904223;29;20455;-87
2023/06/17 07:10:42;;;;;;;8.40;7.50;;;23.50;49.70;;;;;;4926530;29;20470;-88
2023/06/17 07:13:10;;;;;;;9.07;6.67;;;23.60;49.20;;;;;;4910666;29;20462;-85
2023/06/17 07:15:40;;;;;;;12.13;7.40;;;23.50;49.40;;;;;;4924338;29;20462;-88
2023/06/17 07:18:08;;;;;;;8.73;7.77;;;23.90;49.50;;;;;;4919876;29;20453;-87
2023/06/17 07:20:35;;;;;;;11.30;7.00;;;24.20;49.50;;;;;;4912750;29;20471;-85
2023/06/17 07:23:03;;;;;;;8.27;7.50;;;24.40;47.80;;;;;;4910199;29;20451;-85
2023/06/17 07:25:31;;;;;;;9.63;6.40;;;24.20;47.90;;;;;;4902547;29;20463;-85
2023/06/17 07:27:59;;;;;;;7.53;6.83;;;24.10;48.30;;;;;;4909340;29;20908;-85
2023/06/17 07:30:26;;;;;;;7.30;6.50;;;24.10;48.20;;;;;;4926137;29;20475;-86
2023/06/17 07:32:53;;;;;;;11.13;6.30;;;24.30;46.90;;;;;;4923043;29;20455;-86
2023/06/17 07:35:20;;;;;;;12.77;7.70;;;24.40;47.30;;;;;;4910797;29;20462;-86
2023/06/17 07:37:48;;;;;;;12.53;7.53;;;24.80;47.50;;;;;;4924673;29;21153;-85
2023/06/17 07:40:15;;;;;;;30.00;8.30;;;24.80;46.50;;;;;;4942899;28;20506;-87
2023/06/17 07:42:43;;;;;;;7.00;6.33;;;25.10;46.90;;;;;;4924085;29;20866;-85
2023/06/17 07:45:11;;;;;;;7.60;5.93;;;25.40;46.50;;;;;;4924926;29;20473;-87
2023/06/17 07:47:38;;;;;;;8.20;7.10;;;25.60;45.60;;;;;;4926740;29;20469;-89
2023/06/17 07:50:08;;;;;;;14.83;7.00;;;25.70;45.60;;;;;;4911249;29;20923;-88
2023/06/17 07:52:35;;;;;;;8.90;7.33;;;25.80;45.70;;;;;;4929198;29;20853;-89
2023/06/17 07:55:02;;;;;;;9.00;6.80;;;25.80;45.60;;;;;;4923705;29;20451;-87
2023/06/17 07:57:30;;;;;;;8.17;6.50;;;25.50;45.00;;;;;;4937604;29;20447;-88
2023/06/17 07:59:58;;;;;;;9.83;6.40;;;25.40;46.00;;;;;;4929961;29;20470;-89
2023/06/17 08:02:25;;;;;;;9.20;6.73;;;25.80;46.30;;;;;;4945019;29;20925;-88
2023/06/17 08:04:53;;;;;;;6.60;6.00;;;26.00;44.80;;;;;;4927802;29;20470;-88
2023/06/17 08:07:21;;;;;;;8.73;6.50;;;26.10;44.70;;;;;;4917757;29;20442;-89
2023/06/17 08:09:48;;;;;;;6.80;6.00;;;26.00;44.00;;;;;;4911192;29;20682;-88
2023/06/17 08:12:16;;;;;;;6.63;5.93;;;26.00;42.90;;;;;;4912431;29;20471;-87
2023/06/17 08:14:43;;;;;;;6.13;5.60;;;26.30;42.40;;;;;;4926872;29;20459;-88
2023/06/17 08:17:12;;;;;;;6.73;5.87;;;26.40;42.20;;;;;;4909993;29;20463;-88
2023/06/17 08:19:40;;;;;;;6.23;5.73;;;26.40;41.10;;;;;;4921239;29;20486;-87
2023/06/17 08:22:08;;;;;;;9.53;6.03;;;26.50;40.30;;;;;;4911620;29;20447;-87
2023/06/17 08:24:36;;;;;;;11.03;6.40;;;26.60;40.80;;;;;;4910483;29;20462;-88
2023/06/17 08:27:04;;;;;;;7.57;5.83;;;27.00;40.60;;;;;;4918676;29;21304;-88
2023/06/17 08:29:32;;;;;;;6.60;6.00;;;27.20;38.60;;;;;;4904795;29;20542;-86
2023/06/17 08:31:59;;;;;;;6.03;5.43;;;27.30;38.50;;;;;;4935934;28;20477;-88
2023/06/17 08:34:30;;;;;;;6.03;5.40;;;27.50;37.40;;;;;;4910263;29;20550;-87
2023/06/17 08:36:57;;;;;;;7.97;6.20;;;27.50;37.60;;;;;;4925430;29;20439;-88
2023/06/17 08:39:24;;;;;;;6.23;5.27;;;27.50;37.10;;;;;;4919462;29;20478;-91
2023/06/17 08:41:52;;;;;;;6.57;5.97;;;27.70;37.10;;;;;;4927993;29;20450;-93
2023/06/17 08:44:22;;;;;;;5.90;5.30;;;27.90;35.40;;;;;;4908416;29;20446;-89
2023/06/17 08:46:51;;;;;;;7.43;5.70;;;28.10;35.70;;;;;;4912653;29;20458;-90
2023/06/17 08:49:18;;;;;;;5.73;5.10;;;28.20;33.60;;;;;;4930942;29;21029;-92
2023/06/17 08:51:49;;;;;;;8.67;5.83;;;28.60;34.10;;;;;;4928811;29;20470;-89
2023/06/17 08:54:18;;;;;;;6.03;5.43;;;29.00;35.00;;;;;;4910337;29;20459;-88
2023/06/17 08:56:45;;;;;;;6.30;5.20;;;29.20;31.60;;;;;;4957314;28;20506;-91
2023/06/17 08:59:13;;;;;;;5.73;5.13;;;29.40;33.40;;;;;;4912382;29;20515;-91
2023/06/17 09:01:44;;;;;;;7.87;6.10;;;29.30;32.00;;;;;;4925999;29;20515;-90
2023/06/17 09:04:13;;;;;;;7.00;5.60;;;29.20;30.90;;;;;;4908696;29;20522;-88
2023/06/17 09:06:41;;;;;;;7.80;6.00;;;28.90;31.30;;;;;;4911174;29;20469;-89
2023/06/17 09:09:10;;;;;;;6.80;5.20;;;28.80;32.30;;;;;;4921558;29;20465;-87
2023/06/17 09:11:37;;;;;;;5.97;5.47;;;29.00;32.40;;;;;;4925449;29;20509;-89
2023/06/17 09:14:05;;;;;;;10.43;5.20;;;28.90;32.90;;;;;;4906209;29;20494;-91
2023/06/17 09:16:34;;;;;;;6.87;6.20;;;28.90;33.80;;;;;;4902323;29;20831;-89
2023/06/17 09:19:03;;;;;;;8.80;5.57;;;28.90;32.60;;;;;;4926233;29;20489;-89
2023/06/17 09:21:30;;;;;;;7.10;4.80;;;29.00;31.50;;;;;;4926955;29;21153;-89
2023/06/17 09:23:59;;;;;;;5.70;5.10;;;29.10;30.30;;;;;;4913750;29;20457;-91
2023/06/17 09:26:30;;;;;;;6.10;5.50;;;29.10;29.90;;;;;;4912656;29;20957;-90
2023/06/17 09:29:02;;;;;;;6.00;5.40;;;29.00;29.40;;;;;;4940016;28;20479;-88
2023/06/17 09:31:30;;;;;;;5.83;5.23;;;29.10;30.00;;;;;;4913157;29;20478;-91
2023/06/17 09:33:58;;;;;;;6.33;5.37;;;29.30;29.30;;;;;;4929506;29;20517;-89
2023/06/17 09:36:26;;;;;;;6.90;5.10;;;29.10;29.00;;;;;;4916258;29;20455;-89
2023/06/17 09:38:54;;;;;;;6.77;6.10;;;29.20;29.20;;;;;;4925512;29;20576;-89
2023/06/17 09:41:24;;;;;;;8.33;5.00;;;29.20;27.40;;;;;;4909933;29;20978;-89
2023/06/17 09:43:54;;;;;;;5.17;4.63;;;28.80;28.60;;;;;;4924395;29;20459;-88
2023/06/17 09:46:29;;;;;;;5.17;4.77;;;28.90;28.10;;;;;;4908507;29;20458;-88
2023/06/17 09:48:57;;;;;;;5.60;5.10;;;29.10;28.70;;;;;;4912753;29;20469;-89
2023/06/17 09:51:25;;;;;;;5.97;4.70;;;29.40;29.60;;;;;;4908717;29;20478;-88
2023/06/17 09:53:54;;;;;;;6.10;5.50;;;29.90;29.10;;;;;;4915648;29;20587;-88
2023/06/17 09:56:22;;;;;;;5.63;5.10;;;30.40;27.60;;;;;;4902398;29;20457;-87
2023/06/17 09:58:50;;;;;;;5.93;5.30;;;30.30;27.30;;;;;;4905000;29;20484;-88
2023/06/17 10:01:19;;;;;;;6.43;5.83;;;30.10;28.30;;;;;;4927939;29;20447;-88
2023/06/17 10:03:47;;;;;;;5.70;5.00;;;29.90;28.30;;;;;;4913976;29;20937;-90
2023/06/17 10:06:19;;;;;;;6.77;5.00;;;29.70;28.00;;;;;;4913275;29;20451;-87
2023/06/17 10:08:50;;;;;;;5.73;5.13;;;29.80;28.30;;;;;;4909593;29;20489;-87
2023/06/17 10:11:20;;;;;;;6.20;4.80;;;30.20;27.80;;;;;;4944531;29;20878;-91
2023/06/17 10:13:54;;;;;;;6.43;5.10;;;30.30;26.50;;;;;;4913711;29;20467;-87
2023/06/17 10:16:27;;;;;;;5.07;4.57;;;30.50;26.80;;;;;;4928502;29;20461;-88
2023/06/17 10:18:58;;;;;;;9.90;4.37;;;30.20;27.10;;;;;;4921750;29;20473;-87
2023/06/17 10:21:28;;;;;;;5.30;4.90;;;30.30;27.10;;;;;;4914604;29;20468;-89
2023/06/17 10:23:58;;;;;;;32.23;11.00;;;30.60;27.00;;;;;;4914232;29;20525;-85
2023/06/17 10:26:24;;;;;;;7.97;5.20;;;30.80;27.20;;;;;;4912676;29;20800;-88
2023/06/17 10:29:01;;;;;;;5.57;4.80;;;31.30;26.70;;;;;;4926790;29;20482;-88
2023/06/17 10:31:31;;;;;;;5.57;5.07;;;31.50;25.70;;;;;;4928464;29;20476;-87
2023/06/17 10:34:03;;;;;;;5.77;5.20;;;31.20;24.60;;;;;;4937707;28;20458;-89
2023/06/17 10:36:30;;;;;;;5.60;5.10;;;30.70;26.10;;;;;;4922828;29;20809;-88
2023/06/17 10:38:58;;;;;;;8.80;5.30;;;30.90;26.90;;;;;;4921116;29;20980;-88
2023/06/17 10:41:59;;;;;;;6.57;5.13;;;31.00;26.50;;;;;;4938090;29;20454;-87
2023/06/17 10:44:41;;;;;;;5.30;4.80;;;31.00;27.00;;;;;;4911637;29;20450;-87
2023/06/17 10:47:22;;;;;;;5.20;4.80;;;31.20;26.30;;;;;;4915825;29;21406;-87
2023/06/17 10:49:50;;;;;;;5.30;4.80;;;30.80;25.90;;;;;;4904367;29;20509;-87
2023/06/17 10:52:17;;;;;;;5.27;4.77;;;30.60;26.50;;;;;;4908892;29;21039;-86
2023/06/17 10:54:46;;;;;;;5.70;5.20;;;30.80;25.80;;;;;;4923053;29;20462;-86
2023/06/17 10:57:13;;;;;;;6.20;5.10;;;30.70;25.70;;;;;;4920947;29;20542;-85
2023/06/17 10:59:40;;;;;;;6.23;5.60;;;30.70;25.50;;;;;;4920437;29;20489;-86
2023/06/17 11:02:08;;;;;;;6.27;5.73;;;30.90;26.70;;;;;;4922725;29;20462;-86
2023/06/17 11:04:40;;;;;;;6.17;5.57;;;31.20;26.50;;;;;;4903015;29;21158;-87
2023/06/17 11:07:08;;;;;;;5.77;4.63;;;31.60;26.10;;;;;;4931932;29;20451;-86
2023/06/17 11:09:37;;;;;;;6.53;5.47;;;31.80;25.20;;;;;;4913290;28;20995;-85
2023/06/17 11:12:06;;;;;;;5.70;5.10;;;32.00;24.80;;;;;;4947304;28;21104;-86
2023/06/17 11:14:34;;;;;;;5.77;5.13;;;32.20;25.50;;;;;;4925686;29;20545;-87
2023/06/17 11:17:02;;;;;;;6.67;5.90;;;32.40;24.20;;;;;;4934177;29;20462;-86
2023/06/17 11:19:29;;;;;;;4.90;4.50;;;32.70;24.70;;;;;;4932787;29;20481;-87
2023/06/17 11:22:03;;;;;;;5.97;5.33;;;32.60;23.20;;;;;;4924734;29;20473;-88
2023/06/17 11:24:30;;;;;;;6.17;5.53;;;32.60;24.10;;;;;;4906825;29;20451;-86
2023/06/17 11:26:58;;;;;;;6.53;5.63;;;32.90;24.50;;;;;;4907072;29;20538;-86
2023/06/17 11:29:25;;;;;;;7.40;5.90;;;32.90;23.30;;;;;;4917667;29;20479;-86
2023/06/17 11:31:53;;;;;;;7.13;5.70;;;32.70;23.70;;;;;;4922738;29;20483;-87
2023/06/17 11:34:22;;;;;;;5.83;5.33;;;32.90;24.10;;;;;;4935664;29;20461;-86
2023/06/17 11:36:52;;;;;;;6.07;5.57;;;32.90;24.00;;;;;;4928905;29;20949;-87
2023/06/17 11:39:22;;;;;;;6.70;5.77;;;32.60;23.50;;;;;;4907344;29;20522;-87
2023/06/17 11:41:49;;;;;;;6.40;5.70;;;32.20;24.60;;;;;;4922250;29;20465;-87
2023/06/17 11:44:17;;;;;;;5.90;5.30;;;32.20;24.20;;;;;;4908061;29;20537;-87
2023/06/17 11:46:44;;;;;;;6.80;6.13;;;32.20;24.20;;;;;;4931383;29;20459;-86
2023/06/17 11:49:11;;;;;;;6.07;5.47;;;32.30;23.70;;;;;;4920641;29;20503;-88
2023/06/17 11:51:38;;;;;;;5.87;5.13;;;32.10;24.20;;;;;;4905983;29;20439;-86
2023/06/17 11:54:06;;;;;;;6.50;5.93;;;32.40;24.70;;;;;;4922650;29;20466;-86
2023/06/17 11:56:35;;;;;;;6.80;5.83;;;32.60;23.40;;;;;;4914606;29;20510;-88
2023/06/17 11:59:02;;;;;;;7.17;4.90;;;32.40;23.60;;;;;;4928783;28;20487;-85
2023/06/17 12:01:29;;;;;;;7.57;6.10;;;32.30;23.80;;;;;;4926607;29;20549;-84
2023/06/17 12:03:57;;;;;;;5.30;4.80;;;32.30;23.30;;;;;;4913140;29;20825;-85
2023/06/17 12:06:27;;;;;;;5.90;5.37;;;32.40;24.30;;;;;;4915159;29;20454;-85
2023/06/17 12:08:58;;;;;;;5.73;5.23;;;32.80;23.20;;;;;;4915384;29;20491;-85
2023/06/17 12:11:30;;;;;;;5.70;5.17;;;32.80;23.00;;;;;;4919358;29;20978;-87
2023/06/17 12:13:59;;;;;;;6.40;5.50;;;32.70;23.00;;;;;;4906761;29;20491;-84
2023/06/17 12:16:32;;;;;;;6.10;5.50;;;32.20;23.70;;;;;;4918349;29;20462;-85
2023/06/17 12:19:00;;;;;;;14.03;6.50;;;32.10;23.70;;;;;;4917483;29;20560;-86
2023/06/17 12:21:27;;;;;;;7.03;5.07;;;32.30;23.60;;;;;;4922533;29;20459;-85
2023/06/17 12:23:55;;;;;;;6.43;5.60;;;32.70;24.00;;;;;;4901883;29;20960;-85
2023/06/17 12:26:24;;;;;;;6.50;5.93;;;32.80;23.60;;;;;;4902248;29;21083;-85
2023/06/17 12:28:51;;;;;;;5.93;5.40;;;32.70;22.60;;;;;;4917427;29;20483;-85
2023/06/17 12:31:20;;;;;;;9.93;5.83;;;32.20;23.90;;;;;;4939006;29;20457;-84
2023/06/17 12:33:47;;;;;;;6.57;5.40;;;31.90;23.50;;;;;;4922784;29;20486;-85
2023/06/17 12:36:15;;;;;;;6.57;5.83;;;31.90;25.00;;;;;;4928591;29;20466;-85
2023/06/17 12:38:42;;;;;;;6.33;5.33;;;32.00;24.50;;;;;;4905580;29;20991;-85
2023/06/17 12:41:10;;;;;;;5.77;5.27;;;31.90;24.10;;;;;;4907792;29;20486;-85
2023/06/17 12:43:38;;;;;;;6.07;5.47;;;31.90;23.60;;;;;;4921720;29;20447;-85
2023/06/17 12:46:06;;;;;;;8.77;5.80;;;31.60;23.10;;;;;;4919684;29;20450;-84
2023/06/17 12:48:35;;;;;;;6.90;5.50;;;31.90;23.10;;;;;;4922724;28;20462;-86